createdAt,value
2024-01-16T00:01:07.456Z,3.47
2024-01-16T00:03:34.232Z,2.08
2024-01-16T00:06:02.006Z,3.10
2024-01-16T00:08:28.633Z,1.42
2024-01-16T00:10:55.309Z,1.95
2024-01-16T00:13:21.865Z,2.20
2024-01-16T00:15:48.689Z,2.20
2024-01-16T00:18:15.463Z,1.42
2024-01-16T00:20:42.222Z,1.75
2024-01-16T00:23:08.935Z,1.60
2024-01-16T00:25:35.696Z,1.77
2024-01-16T00:28:03.111Z,1.63
2024-01-16T00:30:30.706Z,1.70
2024-01-16T00:32:57.368Z,2.25
2024-01-16T00:35:24.122Z,1.25
2024-01-16T00:37:50.866Z,1.52
2024-01-16T00:40:17.482Z,1.58
2024-01-16T00:42:44.313Z,1.80
2024-01-16T00:45:10.963Z,1.50
2024-01-16T00:47:37.716Z,1.73
2024-01-16T00:50:04.739Z,1.88
2024-01-16T00:52:31.344Z,2.08
2024-01-16T00:54:57.947Z,1.95
2024-01-16T00:57:24.499Z,1.23
2024-01-16T00:59:51.196Z,1.63
2024-01-16T01:02:17.956Z,1.30
2024-01-16T01:04:44.669Z,1.35
2024-01-16T01:07:14.496Z,1.17
2024-01-16T01:09:41.493Z,1.27
2024-01-16T01:12:08.892Z,1.40
2024-01-16T01:14:35.652Z,1.40
2024-01-16T01:17:02.612Z,0.98
2024-01-16T01:19:29.437Z,1.02
2024-01-16T01:21:55.978Z,1.42
2024-01-16T01:24:22.527Z,1.10
2024-01-16T01:26:49.166Z,1.42
2024-01-16T01:29:15.921Z,1.00
2024-01-16T01:31:46.871Z,1.15
2024-01-16T01:34:13.564Z,1.42
2024-01-16T01:36:40.220Z,1.60
2024-01-16T01:39:06.900Z,1.52
2024-01-16T01:41:33.539Z,1.60
2024-01-16T01:44:00.322Z,1.80
2024-01-16T01:46:27.015Z,2.42
2024-01-16T01:48:53.700Z,1.45
2024-01-16T01:51:20.696Z,2.10
2024-01-16T01:53:49.532Z,2.17
2024-01-16T01:58:55.595Z,2.67
2024-01-16T02:01:22.994Z,1.77
2024-01-16T02:03:50.879Z,2.20
2024-01-16T02:06:17.917Z,2.78
2024-01-16T02:08:45.983Z,1.85
2024-01-16T02:11:13.279Z,2.40
2024-01-16T02:13:39.910Z,1.67
2024-01-16T02:16:07.191Z,2.72
2024-01-16T02:18:33.961Z,2.22
2024-01-16T02:21:06.884Z,2.33
2024-01-16T02:23:34.529Z,1.77
2024-01-16T02:26:01.241Z,1.38
2024-01-16T02:28:27.791Z,1.60
2024-01-16T02:30:54.538Z,2.88
2024-01-16T02:33:21.277Z,1.92
2024-01-16T02:35:47.971Z,2.05
2024-01-16T02:38:14.792Z,2.42
2024-01-16T02:40:41.588Z,2.50
2024-01-16T02:43:08.497Z,2.20
2024-01-16T02:45:35.224Z,1.70
2024-01-16T02:48:02.556Z,1.75
2024-01-16T02:50:29.523Z,2.45
2024-01-16T02:52:56.235Z,1.90
2024-01-16T02:55:22.812Z,1.70
2024-01-16T02:57:49.338Z,1.92
2024-01-16T03:00:16.135Z,2.17
2024-01-16T03:02:42.885Z,1.92
2024-01-16T03:05:10.505Z,1.50
2024-01-16T03:07:37.201Z,2.55
2024-01-16T03:10:04.448Z,1.85
2024-01-16T03:12:31.048Z,1.80
2024-01-16T03:14:57.774Z,1.40
2024-01-16T03:17:24.556Z,2.10
2024-01-16T03:19:51.129Z,1.45
2024-01-16T03:22:17.679Z,2.03
2024-01-16T03:24:44.274Z,1.52
2024-01-16T03:27:10.851Z,1.70
2024-01-16T03:29:37.567Z,2.35
2024-01-16T03:32:04.555Z,1.27
2024-01-16T03:34:32.530Z,1.58
2024-01-16T03:36:59.205Z,1.75
2024-01-16T03:39:25.832Z,1.77
2024-01-16T03:41:53.403Z,2.00
2024-01-16T03:44:20.067Z,1.73
2024-01-16T03:46:46.830Z,2.58
2024-01-16T03:49:13.468Z,2.45
2024-01-16T03:51:40.065Z,2.45
2024-01-16T03:54:06.672Z,2.88
2024-01-16T03:56:33.296Z,2.50
2024-01-16T03:59:00.104Z,2.45
2024-01-16T04:01:38.259Z,2.28
2024-01-16T04:04:07.710Z,1.70
2024-01-16T04:06:34.924Z,2.20
2024-01-16T04:09:01.982Z,2.08
2024-01-16T04:11:28.668Z,2.00
2024-01-16T04:13:55.253Z,2.45
2024-01-16T04:16:21.922Z,2.42
2024-01-16T04:18:48.700Z,1.95
2024-01-16T04:21:18.000Z,1.67
2024-01-16T04:23:46.347Z,2.60
2024-01-16T04:26:12.997Z,2.22
2024-01-16T04:28:39.696Z,2.47
2024-01-16T04:31:06.851Z,2.00
2024-01-16T04:33:33.706Z,2.20
2024-01-16T04:36:00.449Z,2.20
2024-01-16T04:38:27.312Z,2.10
2024-01-16T04:40:53.953Z,2.22
2024-01-16T04:43:20.495Z,3.63
2024-01-16T04:45:47.442Z,2.63
2024-01-16T04:48:14.201Z,2.35
2024-01-16T04:50:40.972Z,3.00
2024-01-16T04:53:07.923Z,2.97
2024-01-16T04:55:34.527Z,2.92
2024-01-16T04:58:01.422Z,2.55
2024-01-16T05:00:28.284Z,2.17
2024-01-16T05:02:55.159Z,2.35
2024-01-16T05:05:21.972Z,2.47
2024-01-16T05:07:48.688Z,2.30
2024-01-16T05:10:15.302Z,1.90
2024-01-16T05:12:42.365Z,2.20
2024-01-16T05:15:10.052Z,2.28
2024-01-16T05:17:36.708Z,2.60
2024-01-16T05:20:06.671Z,2.13
2024-01-16T05:22:33.383Z,2.63
2024-01-16T05:25:01.160Z,2.38
2024-01-16T05:27:27.760Z,2.70
2024-01-16T05:29:54.481Z,2.70
2024-01-16T05:32:21.208Z,2.38
2024-01-16T05:34:47.785Z,2.65
2024-01-16T05:37:14.951Z,3.10
2024-01-16T05:39:41.600Z,2.83
2024-01-16T05:42:08.341Z,1.70
2024-01-16T05:44:34.972Z,2.40
2024-01-16T05:47:01.639Z,2.33
2024-01-16T05:49:28.329Z,2.45
2024-01-16T05:51:54.960Z,2.42
2024-01-16T05:54:21.530Z,1.80
2024-01-16T05:56:48.182Z,2.20
2024-01-16T05:59:14.905Z,2.35
2024-01-16T06:01:41.478Z,2.40
2024-01-16T06:04:08.179Z,1.55
2024-01-16T06:06:34.977Z,2.10
2024-01-16T06:09:06.873Z,2.22
2024-01-16T06:11:34.267Z,2.55
2024-01-16T06:14:00.908Z,2.00
2024-01-16T06:16:27.751Z,2.20
2024-01-16T06:18:54.489Z,2.30
2024-01-16T06:21:23.237Z,3.15
2024-01-16T06:23:51.366Z,1.83
2024-01-16T06:26:18.627Z,2.00
2024-01-16T06:28:45.488Z,2.00
2024-01-16T06:31:12.967Z,1.98
2024-01-16T06:33:39.860Z,1.85
2024-01-16T06:36:07.360Z,2.45
2024-01-16T06:38:34.112Z,2.65
2024-01-16T06:41:01.768Z,2.17
2024-01-16T06:43:28.729Z,1.67
2024-01-16T06:45:55.673Z,1.75
2024-01-16T06:48:22.659Z,2.25
2024-01-16T06:50:49.517Z,2.00
2024-01-16T06:53:17.381Z,1.60
2024-01-16T06:55:44.287Z,2.17
2024-01-16T06:58:11.368Z,2.78
2024-01-16T07:00:38.139Z,2.72
2024-01-16T07:03:05.326Z,1.40
2024-01-16T07:05:32.023Z,2.15
2024-01-16T07:07:59.550Z,1.83
2024-01-16T07:10:26.306Z,1.73
2024-01-16T07:12:53.028Z,1.75
2024-01-16T07:15:19.780Z,1.70
2024-01-16T07:17:46.997Z,1.70
2024-01-16T07:20:13.922Z,1.80
2024-01-16T07:22:40.722Z,1.80
2024-01-16T07:25:08.302Z,1.83
2024-01-16T07:27:35.623Z,1.88
2024-01-16T07:30:02.736Z,1.67
2024-01-16T07:32:32.290Z,2.35
2024-01-16T07:34:59.171Z,1.75
2024-01-16T07:37:25.829Z,1.92
2024-01-16T07:39:52.449Z,1.85
2024-01-16T07:42:19.023Z,1.70
2024-01-16T07:44:45.726Z,1.73
2024-01-16T07:47:12.506Z,2.33
2024-01-16T07:49:39.115Z,1.55
2024-01-16T07:52:05.866Z,1.40
2024-01-16T07:54:32.595Z,1.48
2024-01-16T07:56:59.337Z,1.90
2024-01-16T07:59:27.520Z,1.73
2024-01-16T08:01:54.705Z,2.92
2024-01-16T08:04:21.401Z,1.98
2024-01-16T08:06:48.518Z,2.05
2024-01-16T08:09:15.409Z,1.65
2024-01-16T08:11:42.067Z,2.33
2024-01-16T08:14:09.551Z,1.80
2024-01-16T08:16:36.484Z,2.20
2024-01-16T08:19:04.707Z,1.25
2024-01-16T08:21:31.660Z,1.40
2024-01-16T08:23:58.272Z,2.08
2024-01-16T08:26:25.282Z,1.70
2024-01-16T08:28:52.546Z,1.50
2024-01-16T08:31:22.124Z,1.38
2024-01-16T08:33:51.377Z,1.30
2024-01-16T08:36:19.956Z,1.13
2024-01-16T08:38:46.688Z,1.33
2024-01-16T08:41:13.390Z,1.33
2024-01-16T08:43:39.907Z,1.20
2024-01-16T08:46:06.557Z,1.85
2024-01-16T08:48:33.388Z,1.20
2024-01-16T08:51:02.526Z,1.40
2024-01-16T08:53:29.229Z,0.95
2024-01-16T08:55:55.770Z,0.93
2024-01-16T08:58:22.366Z,1.05
2024-01-16T09:00:49.020Z,1.20
2024-01-16T09:03:15.596Z,0.75
2024-01-16T09:05:42.353Z,1.38
2024-01-16T09:08:11.880Z,1.40
2024-01-16T09:10:40.173Z,1.60
2024-01-16T09:13:06.838Z,1.42
2024-01-16T09:15:33.564Z,1.25
2024-01-16T09:18:00.194Z,1.52
2024-01-16T09:20:27.105Z,1.10
2024-01-16T09:22:53.658Z,1.23
2024-01-16T09:25:21.113Z,1.42
2024-01-16T09:27:47.731Z,1.25
2024-01-16T09:30:14.453Z,1.00
2024-01-16T09:32:41.167Z,1.48
2024-01-16T09:35:10.202Z,1.23
2024-01-16T09:37:36.945Z,1.35
2024-01-16T09:40:06.442Z,1.40
2024-01-16T09:42:33.331Z,1.50
2024-01-16T09:45:01.751Z,1.83
2024-01-16T09:47:28.499Z,0.70
2024-01-16T09:49:55.770Z,1.67
2024-01-16T09:52:22.391Z,1.30
2024-01-16T09:54:49.651Z,1.67
2024-01-16T09:57:16.332Z,1.30
2024-01-16T09:59:43.013Z,1.80
2024-01-16T10:02:11.649Z,1.10
2024-01-16T10:04:38.550Z,1.38
2024-01-16T10:07:05.945Z,1.45
2024-01-16T10:09:32.594Z,1.40
2024-01-16T10:12:01.371Z,1.77
2024-01-16T10:14:29.057Z,1.55
2024-01-16T10:16:59.682Z,1.40
2024-01-16T10:19:39.164Z,1.33
2024-01-16T10:22:12.820Z,1.95
2024-01-16T10:24:39.594Z,1.52
2024-01-16T10:27:07.308Z,1.60
2024-01-16T10:29:43.385Z,1.58
2024-01-16T10:32:28.631Z,1.50
2024-01-16T10:35:05.708Z,1.30
2024-01-16T10:37:54.458Z,1.13
2024-01-16T10:40:25.419Z,1.38
2024-01-16T10:43:02.426Z,1.17
2024-01-16T10:45:29.273Z,1.30
2024-01-16T10:48:09.593Z,1.40
2024-01-16T10:50:38.621Z,1.00
2024-01-16T10:53:07.141Z,1.00
2024-01-16T10:55:43.675Z,1.25
2024-01-16T10:58:13.809Z,1.42
2024-01-16T11:00:40.814Z,1.33
2024-01-16T11:03:09.245Z,1.02
2024-01-16T11:05:37.066Z,1.73
2024-01-16T11:08:07.353Z,1.77
2024-01-16T11:10:34.080Z,1.35
2024-01-16T11:13:05.913Z,1.10
2024-01-16T11:15:32.682Z,1.65
2024-01-16T11:18:01.142Z,1.10
2024-01-16T11:23:15.382Z,1.20
2024-01-16T11:25:41.986Z,1.17
2024-01-16T11:28:16.887Z,1.13
2024-01-16T11:30:45.331Z,1.30
2024-01-16T11:35:57.551Z,1.30
2024-01-16T11:38:27.812Z,0.90
2024-01-16T11:40:55.287Z,1.20
2024-01-16T11:43:34.566Z,1.48
2024-01-16T11:46:02.950Z,1.45
2024-01-16T11:48:29.769Z,0.93
2024-01-16T11:50:56.501Z,1.10
2024-01-16T11:53:39.366Z,1.75
2024-01-16T11:56:11.901Z,1.13
2024-01-16T11:59:03.533Z,0.93
2024-01-16T12:01:30.856Z,1.20
2024-01-16T12:04:05.973Z,1.67
2024-01-16T12:06:33.603Z,1.20
2024-01-16T12:09:16.406Z,1.40
2024-01-16T12:11:46.607Z,1.35
2024-01-16T12:14:13.741Z,1.10
2024-01-16T12:16:40.410Z,1.20
2024-01-16T12:19:09.342Z,1.33
2024-01-16T12:21:40.445Z,1.02
2024-01-16T12:24:11.052Z,1.40
2024-01-16T12:26:40.568Z,1.17
2024-01-16T12:29:07.265Z,1.00
2024-01-16T12:31:33.801Z,1.33
2024-01-16T12:34:10.719Z,1.35
2024-01-16T12:36:38.874Z,1.15
2024-01-16T12:39:05.662Z,1.60
2024-01-16T12:41:42.313Z,1.00
2024-01-16T12:44:15.745Z,1.08
2024-01-16T12:46:44.744Z,1.23
2024-01-16T12:49:13.078Z,1.23
2024-01-16T12:54:17.118Z,1.23
2024-01-16T12:56:44.128Z,1.35
2024-01-16T12:59:12.746Z,0.70
2024-01-16T13:04:19.408Z,1.10
2024-01-16T13:06:47.798Z,1.33
2024-01-16T13:09:18.259Z,1.13
2024-01-16T13:11:52.845Z,1.52
2024-01-16T13:14:22.614Z,1.05
2024-01-16T13:16:53.626Z,1.00
2024-01-16T13:19:20.977Z,1.25
2024-01-16T13:21:48.672Z,1.60
2024-01-16T13:24:15.270Z,1.20
2024-01-16T13:26:42.579Z,1.40
2024-01-16T13:29:10.341Z,1.02
2024-01-16T13:31:37.098Z,1.33
2024-01-16T13:34:03.965Z,1.27
2024-01-16T13:36:46.633Z,1.08
2024-01-16T13:39:17.865Z,1.08
2024-01-16T13:41:44.600Z,1.38
2024-01-16T13:44:11.193Z,1.42
2024-01-16T13:46:53.518Z,1.83
2024-01-16T13:49:24.886Z,1.05
2024-01-16T13:51:52.502Z,0.93
2024-01-16T13:54:19.168Z,1.50
2024-01-16T13:56:59.284Z,1.60
2024-01-16T13:59:32.840Z,1.67
2024-01-16T14:01:59.800Z,1.80
2024-01-16T14:04:26.405Z,1.45
2024-01-16T14:07:09.506Z,1.00
2024-01-16T14:09:39.535Z,1.40
2024-01-16T14:12:09.706Z,1.08
2024-01-16T14:14:36.933Z,1.50
2024-01-16T14:17:03.771Z,2.25
2024-01-16T14:19:32.269Z,1.55
2024-01-16T14:21:59.396Z,1.13
2024-01-16T14:24:26.182Z,1.33
2024-01-16T14:26:52.901Z,1.10
2024-01-16T14:29:22.417Z,1.63
2024-01-16T14:31:50.581Z,1.20
2024-01-16T14:36:47.206Z,1.45
2024-01-16T14:39:23.219Z,1.88
2024-01-16T14:41:50.086Z,1.95
2024-01-16T14:44:16.923Z,1.40
2024-01-16T14:46:46.563Z,1.50
2024-01-16T14:49:14.869Z,1.27
2024-01-16T14:51:41.917Z,1.77
2024-01-16T14:54:09.092Z,1.85
2024-01-16T14:56:35.814Z,1.55
2024-01-16T14:59:02.470Z,1.40
2024-01-16T15:01:29.591Z,1.27
2024-01-16T15:03:56.317Z,1.40
2024-01-16T15:06:23.438Z,1.30
2024-01-16T15:08:50.181Z,1.70
2024-01-16T15:11:18.398Z,2.08
2024-01-16T15:13:45.977Z,1.30
2024-01-16T15:16:12.715Z,2.28
2024-01-16T15:18:39.530Z,1.50
2024-01-16T15:21:06.250Z,1.50
2024-01-16T15:23:32.904Z,1.65
2024-01-16T15:26:04.121Z,1.75
2024-01-16T15:28:32.774Z,2.20
2024-01-16T15:33:26.130Z,1.92
2024-01-16T15:35:52.805Z,2.65
2024-01-16T15:38:19.708Z,1.63
2024-01-16T15:40:46.346Z,1.67
2024-01-16T15:43:13.003Z,2.13
2024-01-16T15:45:39.626Z,2.05
2024-01-16T15:48:06.591Z,1.95
2024-01-16T15:50:33.549Z,2.10
2024-01-16T15:53:00.515Z,1.45
2024-01-16T15:55:27.150Z,2.10
2024-01-16T15:57:53.778Z,1.92
2024-01-16T16:00:21.163Z,1.50
2024-01-16T16:02:50.347Z,2.05
2024-01-16T16:05:18.135Z,2.70
2024-01-16T16:07:44.896Z,1.58
2024-01-16T16:10:11.490Z,1.90
2024-01-16T16:12:38.805Z,1.50
2024-01-16T16:15:05.617Z,2.38
2024-01-16T16:17:32.443Z,1.65
2024-01-16T16:19:59.128Z,1.48
2024-01-16T16:22:26.166Z,2.35
2024-01-16T16:24:53.390Z,1.50
2024-01-16T16:27:25.245Z,1.52
2024-01-16T16:29:55.264Z,1.90
2024-01-16T16:32:22.192Z,2.05
2024-01-16T16:34:50.058Z,2.17
2024-01-16T16:37:17.795Z,1.85
2024-01-16T16:39:44.410Z,1.55
2024-01-16T16:42:12.629Z,1.80
2024-01-16T16:44:39.299Z,1.60
2024-01-16T16:47:05.960Z,1.90
2024-01-16T16:49:32.635Z,1.77
2024-01-16T16:51:59.257Z,1.70
2024-01-16T16:54:27.029Z,1.77
2024-01-16T16:56:55.779Z,1.15
2024-01-16T16:59:22.833Z,1.45
2024-01-16T17:01:49.661Z,1.60
2024-01-16T17:04:16.340Z,1.75
2024-01-16T17:06:43.163Z,2.00
2024-01-16T17:09:12.764Z,1.92
2024-01-16T17:11:40.350Z,2.08
2024-01-16T17:14:07.110Z,2.35
2024-01-16T17:16:33.832Z,3.22
2024-01-16T17:19:00.674Z,2.35
2024-01-16T17:21:28.107Z,3.05
2024-01-16T17:23:54.864Z,3.22
2024-01-16T17:26:21.797Z,2.45
2024-01-16T17:28:48.392Z,3.40
2024-01-16T17:31:14.990Z,3.40
2024-01-16T17:33:44.212Z,4.50
2024-01-16T17:36:14.144Z,3.28
2024-01-16T17:38:41.258Z,3.50
2024-01-16T17:41:07.976Z,3.58
2024-01-16T17:43:34.784Z,3.35
2024-01-16T17:46:01.409Z,3.22
2024-01-16T17:48:29.078Z,3.97
2024-01-16T17:50:56.408Z,3.10
2024-01-16T17:53:23.284Z,3.45
2024-01-16T17:55:49.861Z,4.03
2024-01-16T17:58:16.874Z,2.92
2024-01-16T18:00:43.806Z,3.60
2024-01-16T18:03:24.242Z,3.78
2024-01-16T18:06:00.682Z,4.15
2024-01-16T18:08:27.455Z,3.92
2024-01-16T18:10:55.689Z,3.65
2024-01-16T18:13:23.434Z,4.35
2024-01-16T18:15:50.067Z,3.58
2024-01-16T18:18:18.451Z,4.03
2024-01-16T18:20:45.470Z,3.60
2024-01-16T18:23:12.653Z,4.20
2024-01-16T18:25:39.271Z,5.10
2024-01-16T18:28:06.242Z,3.70
2024-01-16T18:30:34.409Z,3.85
2024-01-16T18:33:02.229Z,3.40
2024-01-16T18:35:29.604Z,3.78
2024-01-16T18:37:56.589Z,3.72
2024-01-16T18:40:24.637Z,3.15
2024-01-16T18:42:51.459Z,4.00
2024-01-16T18:45:19.178Z,3.55
2024-01-16T18:47:46.276Z,3.70
2024-01-16T18:50:13.888Z,4.13
2024-01-16T18:52:41.400Z,4.30
2024-01-16T18:55:12.200Z,3.67
2024-01-16T18:57:40.564Z,3.50
2024-01-16T19:00:14.444Z,3.65
2024-01-16T19:02:45.412Z,2.88
2024-01-16T19:05:13.142Z,3.38
2024-01-16T19:07:44.175Z,3.05
2024-01-16T19:10:13.880Z,3.28
2024-01-16T19:12:44.688Z,2.50
2024-01-16T19:15:19.171Z,2.90
2024-01-16T19:17:50.149Z,3.15
2024-01-16T19:20:17.509Z,3.38
2024-01-16T19:22:45.839Z,3.20
2024-01-16T19:25:12.928Z,2.88
2024-01-16T19:27:42.952Z,3.28
2024-01-16T19:30:15.036Z,2.70
2024-01-16T19:32:45.542Z,3.25
2024-01-16T19:35:13.684Z,2.92
2024-01-16T19:37:44.229Z,3.45
2024-01-16T19:40:17.552Z,3.45
2024-01-16T19:42:44.717Z,3.50
2024-01-16T19:45:12.499Z,3.10
2024-01-16T19:47:41.657Z,3.45
2024-01-16T19:50:20.415Z,3.58
2024-01-16T19:52:50.773Z,3.55
2024-01-16T19:55:20.303Z,3.90
2024-01-16T19:57:47.130Z,3.88
2024-01-16T20:00:14.723Z,3.72
2024-01-16T20:02:43.920Z,3.83
2024-01-16T20:05:10.832Z,3.72
2024-01-16T20:07:38.549Z,3.85
2024-01-16T20:10:07.900Z,3.95
2024-01-16T20:12:40.044Z,4.55
2024-01-16T20:15:20.704Z,3.88
2024-01-16T20:17:47.532Z,3.60
2024-01-16T20:20:14.926Z,4.43
2024-01-16T20:22:42.108Z,3.50
2024-01-16T20:25:15.222Z,3.40
2024-01-16T20:27:42.588Z,3.08
2024-01-16T20:30:10.336Z,4.32
2024-01-16T20:32:41.034Z,3.55
2024-01-16T20:35:11.339Z,3.75
2024-01-16T20:37:38.066Z,3.78
2024-01-16T20:40:05.969Z,4.07
2024-01-16T20:42:33.244Z,4.22
2024-01-16T20:45:00.053Z,4.63
2024-01-16T20:47:28.738Z,4.75
2024-01-16T20:52:22.852Z,5.30
2024-01-16T20:54:49.500Z,4.60
2024-01-16T20:57:16.086Z,5.03
2024-01-16T20:59:44.181Z,5.22
2024-01-16T21:02:11.088Z,4.95
2024-01-16T21:04:37.821Z,4.80
2024-01-16T21:07:05.030Z,5.05
2024-01-16T21:09:32.155Z,5.63
2024-01-16T21:12:00.767Z,4.97
2024-01-16T21:14:28.682Z,5.18
2024-01-16T21:16:55.300Z,5.50
2024-01-16T21:19:24.619Z,5.53
2024-01-16T21:21:58.370Z,5.38
2024-01-16T21:24:25.109Z,5.13
2024-01-16T21:26:52.126Z,5.95
2024-01-16T21:29:19.796Z,6.38
2024-01-16T21:31:47.660Z,6.05
2024-01-16T21:34:16.217Z,4.78
2024-01-16T21:36:43.354Z,5.32
2024-01-16T21:39:13.300Z,6.20
2024-01-16T21:41:40.790Z,6.07
2024-01-16T21:44:07.404Z,6.20
2024-01-16T21:46:33.971Z,6.25
2024-01-16T21:49:01.595Z,5.75
2024-01-16T21:51:28.369Z,5.93
2024-01-16T21:53:55.116Z,5.85
2024-01-16T21:56:21.722Z,5.40
2024-01-16T21:58:48.438Z,6.20
2024-01-16T22:01:14.972Z,6.28
2024-01-16T22:03:41.512Z,5.93
2024-01-16T22:06:08.985Z,5.30
2024-01-16T22:08:35.624Z,7.22
2024-01-16T22:11:03.230Z,6.53
2024-01-16T22:13:29.797Z,5.53
2024-01-16T22:15:56.411Z,7.30
2024-01-16T22:18:23.263Z,5.68
2024-01-16T22:20:50.249Z,6.10
2024-01-16T22:23:16.863Z,6.45
2024-01-16T22:25:44.174Z,6.72
2024-01-16T22:28:13.411Z,5.97
2024-01-16T22:30:40.511Z,6.32
2024-01-16T22:33:07.528Z,6.22
2024-01-16T22:35:34.270Z,5.90
2024-01-16T22:38:00.890Z,6.60
2024-01-16T22:40:27.608Z,5.78
2024-01-16T22:42:54.268Z,5.97
2024-01-16T22:45:21.347Z,6.97
2024-01-16T22:47:48.184Z,7.53
2024-01-16T22:50:14.952Z,7.32
2024-01-16T22:52:41.877Z,7.03
2024-01-16T22:55:09.319Z,7.03
2024-01-16T22:57:36.107Z,6.75
2024-01-16T23:00:02.908Z,7.45
2024-01-16T23:02:30.106Z,6.85
2024-01-16T23:04:56.886Z,7.25
2024-01-16T23:07:23.562Z,7.00
2024-01-16T23:09:50.253Z,6.80
2024-01-16T23:12:16.893Z,7.20
2024-01-16T23:14:44.495Z,7.95
2024-01-16T23:17:13.209Z,7.20
2024-01-16T23:19:40.228Z,7.28
2024-01-16T23:22:08.548Z,7.82
2024-01-16T23:24:35.187Z,8.65
2024-01-16T23:27:01.855Z,8.65
2024-01-16T23:29:30.857Z,8.68
2024-01-16T23:31:57.608Z,9.02
2024-01-16T23:34:24.292Z,9.80
2024-01-16T23:36:50.934Z,9.05
2024-01-16T23:39:17.568Z,9.80
2024-01-16T23:41:45.961Z,9.88
2024-01-16T23:44:12.721Z,9.75
2024-01-16T23:46:40.036Z,10.85
2024-01-16T23:49:06.938Z,10.45
2024-01-16T23:51:33.755Z,10.30
2024-01-16T23:54:03.364Z,10.13
2024-01-16T23:56:30.162Z,10.90
2024-01-16T23:58:56.759Z,9.25
